createdAt,value
2023-01-29T00:00:02.907Z,79.83
2023-01-29T00:05:13.035Z,80.16
2023-01-29T00:10:00.761Z,79.99
2023-01-29T00:15:00.696Z,80.58
2023-01-29T00:20:00.724Z,80.72
2023-01-29T00:25:00.692Z,80.53
2023-01-29T00:30:00.700Z,80.86
2023-01-29T00:35:00.763Z,80.59
2023-01-29T00:40:00.728Z,81.16
2023-01-29T00:45:00.819Z,80.60
2023-01-29T00:50:04.602Z,80.64
2023-01-29T00:55:03.339Z,80.39
2023-01-29T01:00:02.377Z,80.56
2023-01-29T01:05:00.860Z,80.73
2023-01-29T01:10:00.722Z,80.45
2023-01-29T01:15:00.718Z,80.38
2023-01-29T01:20:01.098Z,80.15
2023-01-29T01:25:00.696Z,80.81
2023-01-29T01:30:00.715Z,80.81
2023-01-29T01:35:00.749Z,80.81
2023-01-29T01:40:00.712Z,80.42
2023-01-29T01:45:04.363Z,80.25
2023-01-29T01:50:06.061Z,80.85
2023-01-29T01:55:01.309Z,81.25
2023-01-29T02:00:12.844Z,80.53
2023-01-29T02:05:01.238Z,80.35
2023-01-29T02:10:14.809Z,80.29
2023-01-29T02:15:01.076Z,80.79
2023-01-29T02:20:14.164Z,81.05
2023-01-29T02:25:20.572Z,80.71
2023-01-29T02:30:04.327Z,81.52
2023-01-29T02:35:14.749Z,81.13
2023-01-29T02:40:16.677Z,81.18
2023-01-29T02:45:14.697Z,81.53
2023-01-29T02:50:15.857Z,80.98
2023-01-29T02:55:10.753Z,81.41
2023-01-29T03:00:12.533Z,81.72
2023-01-29T03:05:05.829Z,81.09
2023-01-29T03:10:03.656Z,81.36
2023-01-29T03:15:12.362Z,81.60
2023-01-29T03:20:05.797Z,81.23
2023-01-29T03:25:03.843Z,81.34
2023-01-29T03:30:03.584Z,81.50
2023-01-29T03:35:04.287Z,81.62
2023-01-29T03:40:02.648Z,81.52
2023-01-29T03:45:14.342Z,81.27
2023-01-29T03:50:10.296Z,81.38
2023-01-29T03:55:14.258Z,81.30
2023-01-29T04:00:11.037Z,81.06
2023-01-29T04:05:07.061Z,81.40
2023-01-29T04:10:06.915Z,80.89
2023-01-29T04:15:01.173Z,81.21
2023-01-29T04:20:01.239Z,81.09
2023-01-29T04:25:06.185Z,81.02
2023-01-29T04:30:16.552Z,80.94
2023-01-29T04:35:14.431Z,80.81
2023-01-29T04:40:16.705Z,80.61
2023-01-29T04:45:06.959Z,80.34
2023-01-29T04:50:10.663Z,80.42
2023-01-29T04:55:20.595Z,80.42
2023-01-29T05:00:10.898Z,80.29
2023-01-29T05:05:02.457Z,80.32
2023-01-29T05:10:02.024Z,79.98
2023-01-29T05:15:02.801Z,79.99
2023-01-29T05:20:00.757Z,79.63
2023-01-29T05:25:00.705Z,79.80
2023-01-29T05:30:00.745Z,79.55
2023-01-29T05:35:00.927Z,79.41
2023-01-29T05:40:00.696Z,79.40
2023-01-29T05:45:00.794Z,79.28
2023-01-29T05:50:00.705Z,79.36
2023-01-29T05:55:00.853Z,79.35
2023-01-29T06:00:01.466Z,79.29
2023-01-29T06:05:00.696Z,79.47
2023-01-29T06:10:01.085Z,79.47
2023-01-29T06:15:00.724Z,79.47
2023-01-29T06:20:01.124Z,79.48
2023-01-29T06:25:00.690Z,79.40
2023-01-29T06:30:00.786Z,79.39
2023-01-29T06:35:00.692Z,79.12
2023-01-29T06:40:01.258Z,79.11
2023-01-29T06:45:00.676Z,79.10
2023-01-29T06:50:00.717Z,78.95
2023-01-29T06:55:01.180Z,78.55
2023-01-29T07:00:02.640Z,78.78
2023-01-29T07:05:00.704Z,78.66
2023-01-29T07:10:00.695Z,78.18
2023-01-29T07:15:00.751Z,78.11
2023-01-29T07:20:00.756Z,78.39
2023-01-29T07:25:00.746Z,78.37
2023-01-29T07:30:00.708Z,78.44
2023-01-29T07:35:00.687Z,78.30
2023-01-29T07:40:00.968Z,78.09
2023-01-29T07:45:00.805Z,78.17
2023-01-29T07:50:00.903Z,78.25
2023-01-29T07:55:00.821Z,77.66
2023-01-29T08:00:01.198Z,77.31
2023-01-29T08:05:00.692Z,77.60
2023-01-29T08:10:00.804Z,77.50
2023-01-29T08:15:00.772Z,77.58
2023-01-29T08:20:00.795Z,77.24
2023-01-29T08:25:08.271Z,77.11
2023-01-29T08:30:00.941Z,77.05
2023-01-29T08:35:00.745Z,76.82
2023-01-29T08:40:00.760Z,76.75
2023-01-29T08:45:00.722Z,76.77
2023-01-29T08:50:00.727Z,76.68
2023-01-29T08:55:00.672Z,76.68
2023-01-29T09:00:03.941Z,76.66
2023-01-29T09:05:00.712Z,76.55
2023-01-29T09:10:01.104Z,76.27
2023-01-29T09:15:00.743Z,76.33
2023-01-29T09:20:00.728Z,76.26
2023-01-29T09:25:00.693Z,75.34
2023-01-29T09:30:00.763Z,75.48
2023-01-29T09:35:00.722Z,75.21
2023-01-29T09:40:00.708Z,75.13
2023-01-29T09:45:04.722Z,74.78
2023-01-29T09:50:05.599Z,75.12
2023-01-29T09:55:10.574Z,74.25
2023-01-29T10:00:01.443Z,74.21
2023-01-29T10:05:13.714Z,73.78
2023-01-29T10:10:15.655Z,74.12
2023-01-29T10:15:11.655Z,74.31
2023-01-29T10:20:20.424Z,72.94
2023-01-29T10:25:04.477Z,73.60
2023-01-29T10:30:06.151Z,72.92
2023-01-29T10:35:11.789Z,72.40
2023-01-29T10:40:00.747Z,72.19
2023-01-29T10:45:20.862Z,72.47
2023-01-29T10:50:16.093Z,73.08
2023-01-29T10:55:10.633Z,72.39
2023-01-29T11:00:08.451Z,72.31
2023-01-29T11:05:00.726Z,72.26
2023-01-29T11:10:10.407Z,72.42
2023-01-29T11:15:10.647Z,72.47
2023-01-29T11:20:00.763Z,72.26
2023-01-29T11:25:15.106Z,71.92
2023-01-29T11:30:01.034Z,72.09
2023-01-29T11:35:13.894Z,72.24
2023-01-29T11:40:11.408Z,72.13
2023-01-29T11:45:00.688Z,72.16
2023-01-29T11:50:01.975Z,72.70
2023-01-29T11:55:16.667Z,72.07
2023-01-29T12:00:05.984Z,72.01
2023-01-29T12:05:04.687Z,72.17
2023-01-29T12:10:00.985Z,72.56
2023-01-29T12:15:05.284Z,72.71
2023-01-29T12:20:18.469Z,72.94
2023-01-29T12:25:18.971Z,73.13
2023-01-29T12:30:11.682Z,73.04
2023-01-29T12:40:00.945Z,73.64
2023-01-29T12:45:02.762Z,73.38
2023-01-29T12:50:06.931Z,73.60
2023-01-29T12:55:07.892Z,73.88
2023-01-29T13:00:05.255Z,73.76
2023-01-29T13:05:11.582Z,74.01
2023-01-29T13:10:10.283Z,74.15
2023-01-29T13:15:05.057Z,74.76
2023-01-29T13:20:20.519Z,75.20
2023-01-29T13:25:05.133Z,74.78
2023-01-29T13:30:01.107Z,75.15
2023-01-29T13:35:05.507Z,75.08
2023-01-29T13:40:02.992Z,75.01
2023-01-29T13:45:04.659Z,75.21
2023-01-29T13:50:19.986Z,74.95
2023-01-29T13:55:07.290Z,74.85
2023-01-29T14:00:01.092Z,74.58
2023-01-29T14:05:20.522Z,74.37
2023-01-29T14:10:13.801Z,74.38
2023-01-29T14:15:12.962Z,74.38
2023-01-29T14:20:07.012Z,74.11
2023-01-29T14:25:03.482Z,74.48
2023-01-29T14:30:05.606Z,75.24
2023-01-29T14:35:02.924Z,74.88
2023-01-29T14:40:10.576Z,74.83
2023-01-29T14:45:20.587Z,75.25
2023-01-29T14:50:11.651Z,75.35
2023-01-29T14:55:05.818Z,75.39
2023-01-29T15:00:03.792Z,75.40
2023-01-29T15:05:02.434Z,75.70
2023-01-29T15:10:22.275Z,75.93
2023-01-29T15:15:20.523Z,75.70
2023-01-29T15:20:00.791Z,75.87
2023-01-29T15:25:04.578Z,76.08
2023-01-29T15:30:04.584Z,75.90
2023-01-29T15:35:06.585Z,76.05
2023-01-29T15:40:01.152Z,76.02
2023-01-29T15:45:01.973Z,76.27
2023-01-29T15:50:01.008Z,76.13
2023-01-29T15:55:04.665Z,76.48
2023-01-29T16:00:01.655Z,76.39
2023-01-29T16:05:01.453Z,76.74
2023-01-29T16:10:01.750Z,76.64
2023-01-29T16:15:03.197Z,76.43
2023-01-29T16:20:03.336Z,76.33
2023-01-29T16:25:02.987Z,76.53
2023-01-29T16:30:00.951Z,77.46
2023-01-29T16:35:00.824Z,78.10
2023-01-29T16:40:14.688Z,78.06
2023-01-29T16:45:02.469Z,79.29
2023-01-29T16:50:12.700Z,79.45
2023-01-29T16:55:10.573Z,80.35
2023-01-29T17:00:06.165Z,80.61
2023-01-29T17:05:04.632Z,81.93
2023-01-29T17:10:03.570Z,82.26
2023-01-29T17:15:04.427Z,81.68
2023-01-29T17:20:11.354Z,81.63
2023-01-29T17:25:00.632Z,80.98
2023-01-29T17:30:00.698Z,80.76
2023-01-29T17:35:00.757Z,80.56
2023-01-29T17:40:00.634Z,79.78
2023-01-29T17:45:00.614Z,79.80
2023-01-29T17:50:00.657Z,79.86
2023-01-29T17:55:00.627Z,79.75
2023-01-29T18:00:15.513Z,79.67
2023-01-29T18:05:00.629Z,79.67
2023-01-29T18:10:00.632Z,80.12
2023-01-29T18:15:00.636Z,79.90
2023-01-29T18:20:01.161Z,79.86
2023-01-29T18:25:00.632Z,80.05
2023-01-29T18:30:00.698Z,79.94
2023-01-29T18:35:00.715Z,79.89
2023-01-29T18:40:00.773Z,79.53
2023-01-29T18:45:01.161Z,80.06
2023-01-29T18:50:00.710Z,80.04
2023-01-29T18:55:00.647Z,80.42
2023-01-29T19:00:01.026Z,80.83
2023-01-29T19:05:00.986Z,80.89
2023-01-29T19:10:00.635Z,81.97
2023-01-29T19:15:00.896Z,81.72
2023-01-29T19:20:00.802Z,82.36
2023-01-29T19:25:00.663Z,82.05
2023-01-29T19:30:00.852Z,82.82
2023-01-29T19:35:00.880Z,82.54
2023-01-29T19:40:00.653Z,82.87
2023-01-29T19:45:00.664Z,83.08
2023-01-29T19:50:00.629Z,83.20
2023-01-29T19:55:01.986Z,83.32
2023-01-29T20:00:02.990Z,83.06
2023-01-29T20:05:00.630Z,83.53
2023-01-29T20:10:00.644Z,83.47
2023-01-29T20:15:00.641Z,83.33
2023-01-29T20:20:00.667Z,83.29
2023-01-29T20:25:00.633Z,83.64
2023-01-29T20:30:00.609Z,83.77
2023-01-29T20:35:00.813Z,83.60
2023-01-29T20:40:00.661Z,83.90
2023-01-29T20:45:00.679Z,84.24
2023-01-29T20:50:00.659Z,84.57
2023-01-29T20:55:01.203Z,85.04
2023-01-29T21:00:02.347Z,84.84
2023-01-29T21:05:00.660Z,84.90
2023-01-29T21:10:00.651Z,85.39
2023-01-29T21:15:00.697Z,85.28
2023-01-29T21:20:00.653Z,85.68
2023-01-29T21:25:00.646Z,85.87
2023-01-29T21:30:00.681Z,85.97
2023-01-29T21:35:00.647Z,85.98
2023-01-29T21:40:00.624Z,86.17
2023-01-29T21:45:00.669Z,86.68
2023-01-29T21:50:00.631Z,86.29
2023-01-29T21:55:00.897Z,86.61
2023-01-29T22:00:01.934Z,86.55
2023-01-29T22:05:16.581Z,86.68
2023-01-29T22:10:00.714Z,86.64
2023-01-29T22:15:00.639Z,87.22
2023-01-29T22:20:01.033Z,87.75
2023-01-29T22:25:00.648Z,87.58
2023-01-29T22:30:00.697Z,87.35
2023-01-29T22:35:00.685Z,87.46
2023-01-29T22:40:00.848Z,87.87
2023-01-29T22:45:00.644Z,88.32
2023-01-29T22:50:00.627Z,88.41
2023-01-29T22:55:00.637Z,88.42
2023-01-29T23:00:02.827Z,88.94
2023-01-29T23:05:01.043Z,88.95
2023-01-29T23:10:00.726Z,88.20
2023-01-29T23:15:00.637Z,88.46
2023-01-29T23:20:00.668Z,89.02
2023-01-29T23:25:00.622Z,88.79
2023-01-29T23:30:00.858Z,88.93
2023-01-29T23:35:00.657Z,88.77
2023-01-29T23:40:00.660Z,89.02
2023-01-29T23:45:00.657Z,89.06
2023-01-29T23:50:00.662Z,89.42
2023-01-29T23:55:00.628Z,89.37
